Time;durP1;ratioP1;P1;durP2;ratioP2;P2;SDS_P1;SDS_P2;PMS_P1;PMS_P2;Temp;Humidity;BMP_temperature;BMP_pressure;BME280_temperature;BME280_humidity;BME280_pressure;Samples;Min_cycle;Max_cycle;Signal;HPM_P1;HPM_P2
2021/12/27 00:00:46;;;;;;;9.55;4.43;;;;;;;-5.68;97.02;100838.69;10180605;28;20142;-67
2021/12/27 00:05:43;;;;;;;13.95;5.45;;;;;;;-5.59;97.50;100832.09;10178530;28;20042;-67
2021/12/27 00:10:40;;;;;;;15.80;5.75;;;;;;;-5.76;98.25;100832.53;10155178;28;20155;-67
2021/12/27 00:15:39;;;;;;;13.95;4.82;;;;;;;-5.60;98.19;100827.78;9962619;28;20041;-67
2021/12/27 00:20:35;;;;;;;13.38;5.30;;;;;;;-5.74;99.24;100814.50;10136428;28;20045;-69
2021/12/27 00:25:32;;;;;;;17.13;5.60;;;;;;;-5.56;97.45;100808.53;9952793;28;20131;-68
2021/12/27 00:30:28;;;;;;;14.32;5.85;;;;;;;-5.75;99.55;100807.53;9959285;28;20042;-67
2021/12/27 00:35:26;;;;;;;15.52;6.47;;;;;;;-5.69;100.00;100805.06;10183780;28;20128;-67
2021/12/27 00:40:23;;;;;;;16.92;6.55;;;;;;;-5.60;100.00;100782.50;10184627;28;20073;-68
2021/12/27 00:45:20;;;;;;;16.63;7.07;;;;;;;-5.57;100.00;100784.75;10174071;28;20126;-67
2021/12/27 00:50:17;;;;;;;13.13;4.78;;;;;;;-5.36;100.00;100789.81;10179948;28;20093;-67
2021/12/27 00:55:15;;;;;;;15.95;6.55;;;;;;;-5.34;100.00;100790.44;10178338;28;20046;-68
2021/12/27 01:00:17;;;;;;;16.77;6.32;;;;;;;-5.19;100.00;100778.69;10175426;28;22398;-68
2021/12/27 01:05:16;;;;;;;16.25;6.97;;;;;;;-5.18;100.00;100780.31;10171869;28;20039;-68
2021/12/27 01:20:27;;;;;;;18.55;7.13;;;;;;;-5.18;100.00;100767.78;10150347;28;20087;-67
2021/12/27 01:25:25;;;;;;;22.15;8.00;;;;;;;-5.00;100.00;100761.75;9934378;28;20129;-66
2021/12/27 01:30:22;;;;;;;19.27;7.53;;;;;;;-4.92;99.60;100771.34;9959124;28;20452;-66
2021/12/27 01:35:20;;;;;;;16.17;6.95;;;;;;;-4.85;98.82;100769.44;10168427;28;20046;-66
2021/12/27 01:40:19;;;;;;;18.95;7.13;;;;;;;-4.78;97.48;100758.75;9955579;28;20495;-66
2021/12/27 01:45:16;;;;;;;16.55;7.30;;;;;;;-4.75;97.98;100758.31;10168965;28;20464;-68
2021/12/27 01:50:12;;;;;;;17.52;7.35;;;;;;;-4.86;100.00;100757.16;9940552;28;20123;-69
2021/12/27 01:55:09;;;;;;;17.35;7.57;;;;;;;-4.80;100.00;100750.97;10180575;28;20054;-69
2021/12/27 02:00:06;;;;;;;17.85;7.75;;;;;;;-4.94;100.00;100752.91;10172573;28;20132;-70
2021/12/27 02:05:15;;;;;;;21.33;7.55;;;;;;;-4.88;100.00;100738.69;10978577;23;20363;-68
2021/12/27 02:10:12;;;;;;;23.13;8.27;;;;;;;-4.74;100.00;100746.63;10126210;28;20054;-69
2021/12/27 02:15:09;;;;;;;22.30;9.10;;;;;;;-4.70;100.00;100743.28;10137399;28;20178;-68
2021/12/27 02:20:16;;;;;;;21.75;8.70;;;;;;;-4.59;100.00;100720.44;10127167;28;20051;-68
2021/12/27 02:25:14;;;;;;;18.58;7.07;;;;;;;-4.70;100.00;100713.13;10142428;28;20113;-68
2021/12/27 02:30:21;;;;;;;24.33;8.75;;;;;;;-4.78;100.00;100695.56;10142143;28;20542;-68
2021/12/27 02:35:27;;;;;;;21.55;8.23;;;;;;;-4.80;100.00;100692.28;10136508;28;20433;-65
2021/12/27 02:40:27;;;;;;;21.17;9.45;;;;;;;-4.64;100.00;100690.94;10141199;28;20046;-69
2021/12/27 02:45:24;;;;;;;24.10;8.60;;;;;;;-4.78;100.00;100684.03;10143561;28;20096;-69
2021/12/27 02:50:22;;;;;;;28.52;10.80;;;;;;;-4.86;100.00;100679.81;10156507;28;20499;-69
2021/12/27 02:55:20;;;;;;;25.17;9.43;;;;;;;-5.02;100.00;100675.00;10149658;28;20101;-69
2021/12/27 03:00:27;;;;;;;23.08;9.00;;;;;;;-5.32;100.00;100668.41;10140650;28;20073;-68
2021/12/27 03:05:26;;;;;;;27.45;10.02;;;;;;;-5.09;100.00;100677.72;10140932;28;20133;-66
2021/12/27 03:10:29;;;;;;;24.35;9.50;;;;;;;-4.96;100.00;100661.63;10139618;28;20058;-66
2021/12/27 03:15:26;;;;;;;26.55;10.13;;;;;;;-4.81;100.00;100652.47;10138881;28;20196;-66
2021/12/27 03:20:27;;;;;;;18.52;8.10;;;;;;;-4.90;100.00;100654.59;10124970;28;20086;-67
2021/12/27 03:25:25;;;;;;;26.50;9.27;;;;;;;-5.01;100.00;100648.13;10144422;28;20042;-68
2021/12/27 03:30:24;;;;;;;22.70;8.80;;;;;;;-4.82;100.00;100629.53;10129045;28;20082;-66
2021/12/27 03:35:36;;;;;;;22.05;9.15;;;;;;;-4.95;100.00;100625.91;10139692;28;20054;-66
2021/12/27 03:40:32;;;;;;;22.10;9.48;;;;;;;-4.94;100.00;100632.09;10127738;28;20054;-68
2021/12/27 03:45:33;;;;;;;23.65;8.70;;;;;;;-4.88;100.00;100626.66;10104790;28;22551;-66
2021/12/27 03:50:29;;;;;;;22.80;8.98;;;;;;;-4.82;100.00;100634.88;10137482;28;20058;-66
2021/12/27 03:55:27;;;;;;;27.40;9.85;;;;;;;-4.82;100.00;100635.66;10133775;28;20127;-67
2021/12/27 04:00:46;;;;;;;23.92;9.40;;;;;;;-4.71;100.00;100640.31;10138339;28;20523;-66
2021/12/27 04:05:43;;;;;;;22.45;9.27;;;;;;;-4.63;100.00;100628.53;10128532;28;20743;-67
2021/12/27 04:10:42;;;;;;;22.83;9.63;;;;;;;-4.54;100.00;100627.22;10141287;28;20534;-64
2021/12/27 04:15:39;;;;;;;22.90;10.23;;;;;;;-4.55;100.00;100617.59;10131745;28;20070;-67
2021/12/27 04:20:36;;;;;;;25.20;11.43;;;;;;;-4.46;100.00;100608.22;10158248;28;20095;-67
2021/12/27 04:25:33;;;;;;;24.48;9.32;;;;;;;-4.36;100.00;100601.56;10140433;28;20129;-66
2021/12/27 04:30:29;;;;;;;25.45;10.65;;;;;;;-4.66;100.00;100584.44;10135305;28;20078;-66
2021/12/27 04:35:26;;;;;;;26.73;11.15;;;;;;;-4.38;100.00;100576.97;10142980;28;20096;-68
2021/12/27 04:40:25;;;;;;;24.80;11.50;;;;;;;-4.35;100.00;100571.16;10142198;28;20066;-69
2021/12/27 04:45:22;;;;;;;23.02;9.93;;;;;;;-4.13;100.00;100563.50;10142248;28;20050;-68
2021/12/27 04:50:18;;;;;;;27.55;10.52;;;;;;;-4.08;100.00;100567.16;10137993;28;20679;-68
2021/12/27 04:55:15;;;;;;;30.75;11.55;;;;;;;-3.99;100.00;100574.84;10139356;28;20050;-68
2021/12/27 05:00:12;;;;;;;27.15;11.68;;;;;;;-4.09;100.00;100559.34;10139695;28;20133;-66
2021/12/27 05:05:09;;;;;;;24.10;10.68;;;;;;;-4.03;100.00;100553.13;10130728;28;20134;-66
2021/12/27 05:10:05;;;;;;;28.52;10.45;;;;;;;-4.02;100.00;100552.88;10141580;28;20090;-66
2021/12/27 05:15:03;;;;;;;24.15;10.57;;;;;;;-3.95;100.00;100554.66;10132849;28;20070;-67
2021/12/27 05:20:04;;;;;;;23.92;11.15;;;;;;;-4.07;100.00;100552.75;10134728;28;20054;-67
2021/12/27 05:25:01;;;;;;;25.70;10.18;;;;;;;-3.99;100.00;100542.78;10123187;28;20079;-68
2021/12/27 05:29:57;;;;;;;28.75;10.60;;;;;;;-3.82;100.00;100543.81;10135471;28;20046;-66
2021/12/27 05:34:54;;;;;;;31.88;12.13;;;;;;;-3.79;100.00;100538.00;10148008;28;20114;-64
2021/12/27 05:39:51;;;;;;;23.73;10.75;;;;;;;-3.76;100.00;100537.56;10154354;28;20145;-66
2021/12/27 05:44:50;;;;;;;26.23;12.15;;;;;;;-3.68;100.00;100545.25;10137925;28;20062;-65
2021/12/27 05:49:46;;;;;;;27.85;11.63;;;;;;;-3.67;100.00;100541.50;10133078;28;20145;-68
2021/12/27 05:54:52;;;;;;;25.63;10.50;;;;;;;-3.44;100.00;100539.94;10129590;28;20089;-67
2021/12/27 05:59:48;;;;;;;30.20;11.55;;;;;;;-3.49;100.00;100527.28;10139589;28;20074;-67
2021/12/27 06:04:45;;;;;;;30.88;11.65;;;;;;;-3.38;100.00;100517.66;10140266;28;20129;-67
2021/12/27 06:09:41;;;;;;;31.23;12.48;;;;;;;-3.53;100.00;100519.94;10133214;28;20046;-68
2021/12/27 06:14:40;;;;;;;27.40;11.20;;;;;;;-3.55;100.00;100506.00;10123727;28;20035;-67
2021/12/27 06:19:37;;;;;;;29.98;12.07;;;;;;;-3.47;100.00;100492.31;10140412;28;20093;-67
2021/12/27 06:24:33;;;;;;;26.95;12.20;;;;;;;-3.66;100.00;100495.06;10141478;28;20463;-67
2021/12/27 06:29:30;;;;;;;30.33;12.68;;;;;;;-3.96;100.00;100495.09;10096316;28;20098;-66
2021/12/27 06:34:26;;;;;;;29.92;11.85;;;;;;;-3.81;100.00;100503.50;10102036;28;20137;-67
2021/12/27 06:39:23;;;;;;;28.25;11.95;;;;;;;-4.11;100.00;100490.16;10143086;28;20051;-65
2021/12/27 06:44:19;;;;;;;29.27;11.85;;;;;;;-4.06;100.00;100500.97;10147884;28;20039;-67
2021/12/27 06:49:16;;;;;;;34.97;13.18;;;;;;;-3.99;100.00;100500.06;10147364;28;20069;-67
2021/12/27 06:54:12;;;;;;;27.67;12.20;;;;;;;-4.13;100.00;100500.25;10146604;28;20041;-68
2021/12/27 06:59:10;;;;;;;27.80;12.43;;;;;;;-3.96;100.00;100483.59;10139407;28;20054;-66
2021/12/27 07:04:06;;;;;;;37.20;13.35;;;;;;;-3.69;100.00;100492.84;10143032;28;20096;-66
2021/12/27 07:09:04;;;;;;;29.60;11.52;;;;;;;-3.86;100.00;100484.66;10135230;28;20078;-66
2021/12/27 07:14:05;;;;;;;30.30;12.27;;;;;;;-3.67;100.00;100492.59;10144070;28;20046;-66
2021/12/27 07:19:01;;;;;;;29.92;12.75;;;;;;;-3.80;100.00;100496.31;10137761;28;20078;-68
2021/12/27 07:23:58;;;;;;;29.42;13.38;;;;;;;-3.73;100.00;100485.53;10140420;28;20093;-66
2021/12/27 07:28:54;;;;;;;35.42;14.05;;;;;;;-3.70;100.00;100488.53;10137608;28;20094;-65
2021/12/27 07:33:52;;;;;;;38.03;16.25;;;;;;;-3.69;100.00;100484.84;10140450;28;20146;-66
2021/12/27 07:38:48;;;;;;;28.33;13.30;;;;;;;-3.75;100.00;100475.06;10140197;28;20046;-66
2021/12/27 07:43:48;;;;;;;32.55;14.23;;;;;;;-3.78;100.00;100490.72;10143522;28;20050;-65
2021/12/27 07:48:48;;;;;;;35.45;14.98;;;;;;;-3.79;100.00;100487.22;10136611;28;20068;-65
2021/12/27 07:53:44;;;;;;;34.58;14.15;;;;;;;-3.90;100.00;100477.31;10141772;28;20467;-66
2021/12/27 07:58:40;;;;;;;38.42;16.55;;;;;;;-3.89;100.00;100489.66;10135814;28;20081;-66
2021/12/27 08:03:37;;;;;;;38.03;15.00;;;;;;;-3.67;100.00;100482.72;10142822;28;20077;-66
2021/12/27 08:08:34;;;;;;;30.75;12.90;;;;;;;-3.84;100.00;100477.22;10130104;28;20540;-65
2021/12/27 08:13:30;;;;;;;30.25;15.13;;;;;;;-3.51;100.00;100469.75;10132541;28;20520;-66
2021/12/27 08:18:27;;;;;;;35.22;15.43;;;;;;;-3.44;100.00;100459.75;10138200;28;20070;-65
2021/12/27 08:23:23;;;;;;;34.47;14.60;;;;;;;-3.52;100.00;100446.75;10135960;28;20084;-66
2021/12/27 08:28:20;;;;;;;35.63;15.35;;;;;;;-3.45;100.00;100453.59;10136654;28;20547;-66
2021/12/27 08:33:16;;;;;;;32.78;14.32;;;;;;;-3.44;100.00;100462.44;10143087;28;20066;-66
2021/12/27 08:38:13;;;;;;;36.50;16.40;;;;;;;-3.30;100.00;100455.81;10143011;28;20042;-66
2021/12/27 08:43:09;;;;;;;38.55;14.43;;;;;;;-3.40;100.00;100456.38;10144725;28;20050;-66
2021/12/27 08:48:07;;;;;;;35.17;16.05;;;;;;;-3.17;100.00;100455.59;10144721;28;20065;-66
2021/12/27 08:53:07;;;;;;;36.65;15.40;;;;;;;-2.94;100.00;100458.50;10139123;28;20500;-67
2021/12/27 08:58:04;;;;;;;36.92;15.52;;;;;;;-2.83;100.00;100466.50;10142198;28;20133;-67
2021/12/27 09:03:01;;;;;;;33.67;16.48;;;;;;;-2.83;100.00;100474.53;10141790;28;20147;-66
2021/12/27 09:07:57;;;;;;;36.38;16.48;;;;;;;-2.94;100.00;100459.28;10143101;28;20053;-67
2021/12/27 09:12:54;;;;;;;34.70;15.23;;;;;;;-2.76;100.00;100461.81;10141871;28;20088;-65
2021/12/27 09:17:51;;;;;;;41.92;17.13;;;;;;;-2.85;100.00;100465.91;10143360;28;20083;-67
2021/12/27 09:22:47;;;;;;;36.17;15.43;;;;;;;-2.82;100.00;100457.41;10143500;28;20116;-66
2021/12/27 09:27:44;;;;;;;36.92;16.02;;;;;;;-2.67;100.00;100458.75;10147978;28;20074;-68
2021/12/27 09:32:44;;;;;;;37.10;17.77;;;;;;;-2.76;100.00;100453.78;10150381;28;20436;-67
2021/12/27 09:37:40;;;;;;;28.90;14.30;;;;;;;-2.61;100.00;100453.28;10149850;28;20578;-66
2021/12/27 09:42:38;;;;;;;35.47;16.65;;;;;;;-2.43;100.00;100446.94;10145577;28;20794;-67
2021/12/27 09:47:35;;;;;;;38.13;17.27;;;;;;;-2.49;100.00;100445.22;10148651;28;20512;-67
2021/12/27 09:52:45;;;;;;;41.83;17.27;;;;;;;-2.51;100.00;100441.16;10146318;28;20050;-66
2021/12/27 09:57:42;;;;;;;36.70;16.52;;;;;;;-2.45;100.00;100437.53;10142590;28;21441;-66
2021/12/27 10:02:40;;;;;;;40.53;17.23;;;;;;;-2.44;100.00;100425.75;10138766;28;20150;-66
2021/12/27 10:07:41;;;;;;;37.17;17.02;;;;;;;-2.47;100.00;100420.91;10103695;28;1067662;-67
2021/12/27 10:12:51;;;;;;;38.28;17.55;;;;;;;-2.36;100.00;100407.47;10145987;28;20708;-66
2021/12/27 10:17:48;;;;;;;46.42;18.20;;;;;;;-2.33;100.00;100406.97;10143456;28;20097;-67
2021/12/27 10:22:53;;;;;;;42.03;16.85;;;;;;;-2.27;100.00;100409.75;10139159;28;20500;-66
2021/12/27 10:27:53;;;;;;;35.03;17.13;;;;;;;-2.31;100.00;100409.41;10135351;28;20124;-66
2021/12/27 10:33:24;;;;;;;39.30;18.10;;;;;;;-2.36;100.00;100401.28;10146960;28;20058;-66
2021/12/27 10:38:28;;;;;;;39.65;17.65;;;;;;;-2.35;100.00;100393.00;10147983;28;20047;-66
2021/12/27 10:43:45;;;;;;;39.50;17.25;;;;;;;-2.23;100.00;100381.44;10148239;28;20504;-67
2021/12/27 10:49:01;;;;;;;39.95;18.40;;;;;;;-2.21;100.00;100387.34;10149147;28;20050;-66
2021/12/27 10:54:00;;;;;;;45.28;19.25;;;;;;;-2.17;100.00;100378.59;10152882;28;20046;-66
2021/12/27 10:59:04;;;;;;;39.88;18.92;;;;;;;-2.05;100.00;100375.84;10145356;28;20586;-66
2021/12/27 11:04:01;;;;;;;43.40;19.40;;;;;;;-2.05;100.00;100364.31;10144655;28;20051;-66
2021/12/27 11:09:00;;;;;;;47.08;20.10;;;;;;;-1.87;100.00;100360.59;10143877;28;20112;-67
2021/12/27 11:13:57;;;;;;;48.33;20.35;;;;;;;-1.65;100.00;100361.47;10138321;28;20050;-66
2021/12/27 11:18:55;;;;;;;47.38;20.88;;;;;;;-1.85;100.00;100363.84;10138527;28;20073;-66
2021/12/27 11:23:52;;;;;;;40.50;17.98;;;;;;;-1.86;100.00;100356.84;10147340;28;20136;-66
2021/12/27 11:29:17;;;;;;;41.65;19.65;;;;;;;-1.74;100.00;100344.16;10146089;28;20441;-68
2021/12/27 11:34:15;;;;;;;42.88;19.58;;;;;;;-1.75;100.00;100348.72;10144920;28;20073;-67
2021/12/27 11:39:42;;;;;;;45.67;20.83;;;;;;;-1.65;100.00;100342.69;10112125;28;20057;-67
2021/12/27 11:44:58;;;;;;;43.95;19.65;;;;;;;-1.62;100.00;100331.50;10100865;28;20562;-66
2021/12/27 11:50:02;;;;;;;44.80;21.13;;;;;;;-1.77;100.00;100323.22;10140455;28;20782;-66
2021/12/27 11:55:05;;;;;;;49.15;22.52;;;;;;;-1.82;100.00;100326.63;10146226;28;20129;-67
2021/12/27 12:00:23;;;;;;;44.63;20.33;;;;;;;-1.67;100.00;100320.72;10141381;28;20084;-67
2021/12/27 12:05:39;;;;;;;44.00;20.65;;;;;;;-2.00;100.00;100311.63;10139528;28;20050;-66
2021/12/27 12:10:37;;;;;;;43.45;20.77;;;;;;;-1.74;100.00;100318.19;10136181;28;20046;-67
2021/12/27 12:15:35;;;;;;;43.85;21.05;;;;;;;-1.52;100.00;100304.81;10132839;28;20121;-63
2021/12/27 12:20:36;;;;;;;43.33;20.40;;;;;;;-1.34;100.00;100302.91;10139609;28;20129;-62
2021/12/27 12:25:34;;;;;;;48.03;19.92;;;;;;;-1.60;100.00;100302.56;10133779;28;20101;-67
2021/12/27 12:30:35;;;;;;;42.15;20.52;;;;;;;-1.37;100.00;100306.91;10129210;28;20105;-67
2021/12/27 12:35:32;;;;;;;43.95;20.73;;;;;;;-1.43;100.00;100296.34;10133709;28;20426;-68
2021/12/27 12:40:28;;;;;;;45.67;23.13;;;;;;;-1.30;100.00;100304.00;10131115;28;20042;-67
2021/12/27 12:45:29;;;;;;;43.13;22.23;;;;;;;-1.43;100.00;100307.09;10129615;28;20129;-68
2021/12/27 12:50:26;;;;;;;49.38;22.40;;;;;;;-1.38;100.00;100299.09;10129532;28;20510;-67
2021/12/27 12:55:29;;;;;;;48.10;22.20;;;;;;;-1.34;100.00;100294.88;10119487;28;20490;-67
2021/12/27 13:00:29;;;;;;;48.47;24.15;;;;;;;-1.18;100.00;100277.91;10129965;28;20082;-68
2021/12/27 13:05:35;;;;;;;48.63;23.67;;;;;;;-1.32;100.00;100273.97;10096219;28;20100;-67
2021/12/27 13:10:34;;;;;;;49.50;22.75;;;;;;;-1.27;100.00;100268.66;10130682;28;20113;-67
2021/12/27 13:15:36;;;;;;;51.63;24.27;;;;;;;-1.19;100.00;100260.16;10129229;28;20058;-68
2021/12/27 13:20:38;;;;;;;51.50;23.38;;;;;;;-1.04;100.00;100261.38;10129403;28;20046;-68
2021/12/27 13:25:45;;;;;;;47.75;22.98;;;;;;;-1.11;100.00;100251.69;10128526;28;20734;-66
2021/12/27 13:31:02;;;;;;;49.28;22.90;;;;;;;-1.20;100.00;100253.19;10117769;28;20101;-67
2021/12/27 13:36:00;;;;;;;43.75;21.65;;;;;;;-1.26;100.00;100259.53;10133302;28;20038;-67
2021/12/27 13:41:02;;;;;;;44.17;22.55;;;;;;;-1.26;100.00;100259.53;10139478;28;20610;-67
2021/12/27 13:46:13;;;;;;;52.30;23.93;;;;;;;-1.00;100.00;100267.88;10123009;28;20136;-68
2021/12/27 13:51:10;;;;;;;44.60;21.50;;;;;;;-0.91;100.00;100256.44;10133937;28;20577;-68
2021/12/27 13:56:13;;;;;;;48.22;21.52;;;;;;;-0.92;100.00;100254.03;10138462;28;20077;-68
2021/12/27 14:01:16;;;;;;;47.88;21.10;;;;;;;-0.90;100.00;100246.53;10144792;28;20073;-67
2021/12/27 14:06:13;;;;;;;;;;;;;;;-0.97;100.00;100251.28;10134265;28;20113;-67
2021/12/27 14:11:13;;;;;;;45.60;22.92;;;;;;;-0.96;100.00;100252.91;10145893;28;20333;-67
2021/12/27 14:16:34;;;;;;;47.42;22.63;;;;;;;-0.89;100.00;100250.81;10149572;28;20107;-67
2021/12/27 14:21:59;;;;;;;48.83;23.10;;;;;;;-0.97;100.00;100245.94;10138448;28;20486;-65
2021/12/27 14:26:55;;;;;;;51.45;24.08;;;;;;;-0.85;100.00;100249.25;10131200;28;20043;-66
2021/12/27 14:31:55;;;;;;;50.45;22.65;;;;;;;-0.88;100.00;100239.03;10157919;28;20074;-66
2021/12/27 14:36:52;;;;;;;49.33;23.70;;;;;;;-1.02;100.00;100253.91;10123248;28;20043;-66
2021/12/27 14:41:48;;;;;;;46.75;23.25;;;;;;;-0.89;100.00;100253.50;10143774;28;20065;-66
2021/12/27 14:46:45;;;;;;;47.67;22.55;;;;;;;-0.94;100.00;100253.47;10145187;28;20133;-67
2021/12/27 14:51:41;;;;;;;49.60;22.92;;;;;;;-0.98;100.00;100257.72;10147938;28;20053;-66
2021/12/27 14:56:38;;;;;;;52.42;24.90;;;;;;;-1.09;100.00;100254.94;10148857;28;20078;-67
2021/12/27 15:01:34;;;;;;;53.72;26.73;;;;;;;-0.98;100.00;100255.81;10142651;28;20137;-66
2021/12/27 15:06:31;;;;;;;47.65;23.30;;;;;;;-1.02;100.00;100237.81;10130106;28;20057;-67
2021/12/27 15:11:27;;;;;;;52.13;25.85;;;;;;;-0.98;100.00;100217.44;10130925;28;20287;-66
2021/12/27 15:16:25;;;;;;;50.97;25.83;;;;;;;-1.02;100.00;100229.75;10145417;28;20046;-66
2021/12/27 15:21:21;;;;;;;52.22;24.10;;;;;;;-1.06;100.00;100232.94;10116689;28;20054;-66
2021/12/27 15:26:18;;;;;;;54.63;25.67;;;;;;;-1.09;100.00;100233.47;10137435;28;20054;-67
2021/12/27 15:31:15;;;;;;;52.28;25.88;;;;;;;-0.95;100.00;100238.41;10146174;28;20138;-66
2021/12/27 15:36:11;;;;;;;56.60;26.25;;;;;;;-1.04;100.00;100246.13;10136116;28;20571;-66
2021/12/27 15:41:09;;;;;;;54.30;25.15;;;;;;;-1.25;100.00;100239.72;10148902;28;20063;-66
2021/12/27 15:46:06;;;;;;;54.13;26.40;;;;;;;-1.04;100.00;100242.59;10126787;28;20101;-66
2021/12/27 15:51:02;;;;;;;52.50;26.80;;;;;;;-0.87;100.00;100232.59;10148191;28;20153;-67
2021/12/27 15:56:00;;;;;;;55.92;24.83;;;;;;;-1.06;100.00;100222.22;10147959;28;20073;-67
2021/12/27 16:00:56;;;;;;;55.63;26.02;;;;;;;-1.16;100.00;100200.66;10151387;28;20105;-67
2021/12/27 16:05:53;;;;;;;49.70;26.27;;;;;;;-0.89;100.00;100226.66;10137332;28;20053;-67
2021/12/27 16:10:49;;;;;;;46.85;23.08;;;;;;;-0.78;100.00;100239.13;10143055;28;20100;-67
2021/12/27 16:15:46;;;;;;;56.55;28.65;;;;;;;-0.74;100.00;100226.81;10142572;28;20070;-67
2021/12/27 16:20:43;;;;;;;55.40;25.48;;;;;;;-0.80;100.00;100230.50;10142858;28;20047;-67
2021/12/27 16:25:39;;;;;;;53.25;25.30;;;;;;;-0.88;100.00;100239.03;10128587;28;20053;-67
2021/12/27 16:30:36;;;;;;;49.22;25.27;;;;;;;-0.72;100.00;100248.88;10110372;28;20050;-67
2021/12/27 16:35:33;;;;;;;46.95;25.70;;;;;;;-0.76;100.00;100230.84;10131747;28;20057;-67
2021/12/27 16:40:29;;;;;;;50.97;25.23;;;;;;;-0.86;100.00;100226.16;10133237;28;20074;-67
2021/12/27 16:45:26;;;;;;;49.70;24.98;;;;;;;-0.71;100.00;100222.81;10132860;28;20042;-68
2021/12/27 16:50:25;;;;;;;48.78;24.75;;;;;;;-0.84;100.00;100218.66;10146822;28;20066;-69
2021/12/27 16:55:22;;;;;;;49.95;24.83;;;;;;;-0.74;100.00;100208.03;10140917;28;20042;-69
2021/12/27 17:00:21;;;;;;;53.63;25.27;;;;;;;-0.75;100.00;100211.75;10136596;28;20764;-69
2021/12/27 17:05:17;;;;;;;52.28;24.00;;;;;;;-0.61;100.00;100227.47;10141000;28;20054;-69
2021/12/27 17:10:14;;;;;;;44.97;22.92;;;;;;;-0.67;100.00;100219.38;10134077;28;20085;-69
2021/12/27 17:15:11;;;;;;;49.45;22.67;;;;;;;-0.56;100.00;100219.44;10141699;28;20050;-69
2021/12/27 17:20:08;;;;;;;46.90;22.77;;;;;;;-0.54;100.00;100217.31;10127710;28;20137;-70
2021/12/27 17:25:07;;;;;;;49.13;23.50;;;;;;;-0.47;100.00;100212.53;10134050;28;20058;-69
2021/12/27 17:30:05;;;;;;;51.97;23.38;;;;;;;-0.54;100.00;100206.56;10133604;28;20054;-69
2021/12/27 17:35:03;;;;;;;49.30;23.73;;;;;;;-0.47;100.00;100202.59;10128286;28;20094;-67
2021/12/27 17:40:00;;;;;;;48.03;22.63;;;;;;;-0.33;100.00;100207.53;10141723;28;20553;-67
2021/12/27 17:44:56;;;;;;;45.35;23.63;;;;;;;-0.36;100.00;100219.59;10143803;28;20042;-69
2021/12/27 17:49:53;;;;;;;44.92;22.52;;;;;;;-0.35;100.00;100215.03;10135431;28;20486;-68
2021/12/27 17:54:50;;;;;;;51.10;24.90;;;;;;;-0.24;100.00;100216.72;10133292;28;20043;-68
2021/12/27 17:59:47;;;;;;;45.28;21.35;;;;;;;-0.25;100.00;100213.25;10146249;28;20407;-68
2021/12/27 18:04:43;;;;;;;48.22;24.45;;;;;;;-0.28;100.00;100211.09;10143549;28;20137;-68
2021/12/27 18:09:40;;;;;;;49.05;23.92;;;;;;;-0.14;100.00;100199.88;10145533;28;20204;-68
2021/12/27 18:14:39;;;;;;;48.25;23.63;;;;;;;-0.04;100.00;100186.50;10139161;28;20116;-68
2021/12/27 18:19:38;;;;;;;47.60;22.98;;;;;;;-0.06;100.00;100180.59;10165973;28;20046;-67
2021/12/27 18:24:35;;;;;;;48.25;23.35;;;;;;;-0.01;100.00;100172.53;10149819;28;20101;-68
2021/12/27 18:29:37;;;;;;;41.10;21.88;;;;;;;0.00;100.00;100179.56;10146691;28;20092;-67
2021/12/27 18:34:34;;;;;;;44.05;21.98;;;;;;;0.08;100.00;100170.97;10145080;28;20054;-67
2021/12/27 18:39:31;;;;;;;43.33;22.02;;;;;;;0.01;100.00;100170.41;10147056;28;20133;-67
2021/12/27 18:44:43;;;;;;;42.85;22.60;;;;;;;-0.11;100.00;100156.38;10129689;28;20146;-67
2021/12/27 18:49:40;;;;;;;41.20;20.50;;;;;;;0.04;100.00;100161.00;10142167;28;20046;-67
2021/12/27 18:54:36;;;;;;;45.15;22.35;;;;;;;0.08;100.00;100168.28;10142146;28;20066;-66
2021/12/27 18:59:38;;;;;;;31.65;16.90;;;;;;;0.15;100.00;100166.16;10134714;28;20051;-67
2021/12/27 19:04:35;;;;;;;40.38;21.35;;;;;;;-0.01;100.00;100164.47;10144188;28;20050;-67
2021/12/27 19:09:33;;;;;;;45.35;22.63;;;;;;;0.14;100.00;100159.19;10131518;28;20046;-66
2021/12/27 19:14:30;;;;;;;43.03;21.85;;;;;;;0.17;100.00;100158.66;10141220;28;20097;-66
2021/12/27 19:19:27;;;;;;;38.67;20.55;;;;;;;0.13;100.00;100141.41;10127904;28;20067;-66
2021/12/27 19:24:23;;;;;;;42.03;21.80;;;;;;;0.24;100.00;100150.34;10131042;28;20067;-66
2021/12/27 19:29:20;;;;;;;41.03;21.55;;;;;;;0.19;100.00;100148.44;10130186;28;20109;-67
2021/12/27 19:34:17;;;;;;;42.22;20.02;;;;;;;0.09;100.00;100151.06;10127540;28;20050;-67
2021/12/27 19:39:13;;;;;;;39.83;19.90;;;;;;;0.26;100.00;100145.53;10120916;28;20168;-66
2021/12/27 19:44:10;;;;;;;40.20;20.63;;;;;;;0.17;100.00;100145.22;10127437;28;20047;-67
2021/12/27 19:49:06;;;;;;;43.83;22.75;;;;;;;0.22;100.00;100135.56;10148370;28;20069;-66
2021/12/27 19:54:03;;;;;;;44.58;23.63;;;;;;;0.25;100.00;100132.31;10129215;28;20046;-68
2021/12/27 19:59:19;;;;;;;37.13;19.10;;;;;;;0.36;100.00;100129.41;10141309;28;20042;-67
2021/12/27 20:04:17;;;;;;;43.03;22.05;;;;;;;0.29;100.00;100117.28;10126876;28;20050;-67
2021/12/27 20:09:13;;;;;;;40.92;21.17;;;;;;;0.35;100.00;100117.03;10128855;28;20057;-67
2021/12/27 20:14:11;;;;;;;41.03;20.65;;;;;;;0.45;100.00;100110.88;10107957;28;20070;-67
2021/12/27 20:19:07;;;;;;;41.25;20.70;;;;;;;0.32;100.00;100100.63;10117830;28;20073;-67
2021/12/27 20:24:06;;;;;;;40.50;20.42;;;;;;;0.27;100.00;100097.91;10130733;28;20585;-67
2021/12/27 20:29:05;;;;;;;36.42;19.98;;;;;;;0.44;100.00;100093.13;10123813;28;20050;-66
2021/12/27 20:34:04;;;;;;;48.88;22.48;;;;;;;0.23;100.00;100086.88;10125728;28;20051;-67
2021/12/27 20:39:03;;;;;;;39.65;21.48;;;;;;;0.28;100.00;100099.53;10141473;28;20042;-67
2021/12/27 20:44:00;;;;;;;41.28;20.00;;;;;;;0.30;100.00;100094.69;10141470;28;20105;-66
2021/12/27 20:48:59;;;;;;;44.88;21.85;;;;;;;0.18;100.00;100090.34;10138618;28;20149;-66
2021/12/27 20:53:56;;;;;;;40.00;21.67;;;;;;;0.04;100.00;100073.09;10139947;28;20058;-65
2021/12/27 20:58:52;;;;;;;41.88;21.10;;;;;;;0.12;100.00;100087.94;10140891;28;20030;-67
2021/12/27 21:03:50;;;;;;;39.63;20.98;;;;;;;0.08;100.00;100081.47;10125652;28;20038;-65
2021/12/27 21:08:48;;;;;;;43.53;21.05;;;;;;;0.02;100.00;100080.63;10130107;28;20046;-69
2021/12/27 21:13:47;;;;;;;39.92;20.55;;;;;;;0.25;100.00;100089.31;10126324;28;20039;-67
2021/12/27 21:18:44;;;;;;;39.58;20.27;;;;;;;0.49;100.00;100074.31;10139508;28;20085;-64
2021/12/27 21:23:40;;;;;;;39.92;22.23;;;;;;;0.48;100.00;100067.31;10146663;28;20130;-70
2021/12/27 21:28:37;;;;;;;33.33;17.85;;;;;;;0.63;100.00;100064.66;10146273;28;20066;-70
2021/12/27 21:33:34;;;;;;;38.83;18.83;;;;;;;0.67;100.00;100061.41;10142129;28;20104;-69
2021/12/27 21:38:31;;;;;;;41.50;20.65;;;;;;;0.70;100.00;100063.59;10133253;28;20046;-67
2021/12/27 21:43:30;;;;;;;33.67;18.05;;;;;;;0.78;100.00;100063.03;10165113;28;20058;-69
2021/12/27 21:48:26;;;;;;;38.10;19.30;;;;;;;0.73;100.00;100060.34;10147190;28;20471;-68
2021/12/27 21:53:23;;;;;;;33.03;19.70;;;;;;;0.84;100.00;100048.50;10166043;28;20077;-68
2021/12/27 21:58:21;;;;;;;36.97;18.95;;;;;;;0.83;100.00;100044.19;10156097;28;20042;-68
2021/12/27 22:03:17;;;;;;;38.72;18.92;;;;;;;0.66;100.00;100043.66;10151312;28;20046;-69
2021/12/27 22:08:14;;;;;;;34.63;18.92;;;;;;;0.78;100.00;100055.75;10146515;28;20061;-69
2021/12/27 22:13:11;;;;;;;32.42;17.67;;;;;;;0.84;100.00;100049.31;10140656;28;20050;-69
2021/12/27 22:18:07;;;;;;;33.45;18.45;;;;;;;0.86;100.00;100050.91;10129534;28;20042;-67
2021/12/27 22:23:05;;;;;;;32.47;17.17;;;;;;;0.80;100.00;100052.81;10126682;28;20157;-68